KIFP

Laughlin / Bullhead International Airport

Bullhead City, Arizona, USA
METAR KIFP 200047Z 36014KT 20SM SCT120 18/00 A3024
Observed Flight Rules
Jan-20 @ 00:47 UTC (10 hours ago) Visual Flight Rules
Wind Visibility Clouds
360° at 14 knots 20 miles
  • Scattered at 12,000' AGL
Temperatures Readings
Current 18°C / 64°F
Dewpoint 0°C / 32°F
Humidity 30%
Altimeter 30.24" Hg
Pressure 1024.02 hPa
Elevation 212
METAR KIFP 200047Z 36014KT 20SM SCT120 18/00 A3024
Observed Flight Rules
Jan-20 @ 00:47 UTC
(10 hours ago)
VFR
Wind Visibility
360° at 14 knots 20 miles
Clouds
  • Scattered at 12,000' AGL
Temperature Dewpoint
18°C / 64°F 0°C / 32°F
Humidity Altimeter Pressure
30% 30.24" Hg 1024.02 hPa